sensor_id;sensor_type;location;lat;lon;timestamp;temperature;humidity
25512;DHT22;13414;44.534;18.700;2024-03-23T00:54:51;5.80;86.70
25512;DHT22;13414;44.534;18.700;2024-03-23T00:57:19;5.70;79.60
25512;DHT22;13414;44.534;18.700;2024-03-23T00:59:45;5.60;99.90
25512;DHT22;13414;44.534;18.700;2024-03-23T01:02:13;5.50;99.90
25512;DHT22;13414;44.534;18.700;2024-03-23T01:04:39;5.50;99.90
25512;DHT22;13414;44.534;18.700;2024-03-23T01:07:07;5.50;99.90
25512;DHT22;13414;44.534;18.700;2024-03-23T01:09:34;5.50;99.90
25512;DHT22;13414;44.534;18.700;2024-03-23T01:12:05;5.50;1.00
25512;DHT22;13414;44.534;18.700;2024-03-23T01:14:31;5.50;1.00
25512;DHT22;13414;44.534;18.700;2024-03-23T01:16:58;5.50;1.00
25512;DHT22;13414;44.534;18.700;2024-03-23T01:19:25;5.40;1.00
25512;DHT22;13414;44.534;18.700;2024-03-23T01:21:52;5.40;1.00
25512;DHT22;13414;44.534;18.700;2024-03-23T01:24:19;5.40;1.00
25512;DHT22;13414;44.534;18.700;2024-03-23T01:26:47;5.40;1.00
25512;DHT22;13414;44.534;18.700;2024-03-23T01:29:14;5.30;1.00
25512;DHT22;13414;44.534;18.700;2024-03-23T01:31:42;5.20;1.00
25512;DHT22;13414;44.534;18.700;2024-03-23T01:34:09;5.30;1.00
25512;DHT22;13414;44.534;18.700;2024-03-23T01:36:36;5.30;1.00
25512;DHT22;13414;44.534;18.700;2024-03-23T01:39:03;5.20;1.00
25512;DHT22;13414;44.534;18.700;2024-03-23T01:41:30;5.30;99.90
25512;DHT22;13414;44.534;18.700;2024-03-23T01:44:05;5.00;1.00
25512;DHT22;13414;44.534;18.700;2024-03-23T01:46:33;5.00;99.90
25512;DHT22;13414;44.534;18.700;2024-03-23T01:49:00;5.00;1.00
25512;DHT22;13414;44.534;18.700;2024-03-23T01:51:27;5.10;1.00
25512;DHT22;13414;44.534;18.700;2024-03-23T01:53:56;5.00;1.00
25512;DHT22;13414;44.534;18.700;2024-03-23T01:56:26;5.00;1.00
25512;DHT22;13414;44.534;18.700;2024-03-23T01:58:53;5.00;1.00
25512;DHT22;13414;44.534;18.700;2024-03-23T02:01:22;5.00;1.00
25512;DHT22;13414;44.534;18.700;2024-03-23T02:03:48;5.00;1.00
25512;DHT22;13414;44.534;18.700;2024-03-23T02:06:16;4.90;1.00
25512;DHT22;13414;44.534;18.700;2024-03-23T02:08:44;4.90;99.90
25512;DHT22;13414;44.534;18.700;2024-03-23T02:11:11;5.00;1.00
25512;DHT22;13414;44.534;18.700;2024-03-23T02:13:39;5.00;1.00
25512;DHT22;13414;44.534;18.700;2024-03-23T02:16:06;5.10;1.00
25512;DHT22;13414;44.534;18.700;2024-03-23T02:18:34;5.10;1.00
25512;DHT22;13414;44.534;18.700;2024-03-23T02:21:02;5.10;1.00
25512;DHT22;13414;44.534;18.700;2024-03-23T02:23:30;5.10;99.90
25512;DHT22;13414;44.534;18.700;2024-03-23T02:25:58;5.00;1.00
25512;DHT22;13414;44.534;18.700;2024-03-23T02:28:24;5.00;99.90
25512;DHT22;13414;44.534;18.700;2024-03-23T02:30:52;5.00;1.00
25512;DHT22;13414;44.534;18.700;2024-03-23T02:33:18;5.00;1.00
25512;DHT22;13414;44.534;18.700;2024-03-23T02:35:46;5.00;1.00
25512;DHT22;13414;44.534;18.700;2024-03-23T02:38:13;5.00;1.00
25512;DHT22;13414;44.534;18.700;2024-03-23T02:40:42;4.90;1.00
25512;DHT22;13414;44.534;18.700;2024-03-23T02:43:08;4.90;1.00
25512;DHT22;13414;44.534;18.700;2024-03-23T02:45:35;4.90;1.00
25512;DHT22;13414;44.534;18.700;2024-03-23T02:48:03;4.80;1.00
25512;DHT22;13414;44.534;18.700;2024-03-23T02:50:30;4.70;1.00
25512;DHT22;13414;44.534;18.700;2024-03-23T02:52:57;4.60;1.00
25512;DHT22;13414;44.534;18.700;2024-03-23T02:55:24;4.60;99.90
25512;DHT22;13414;44.534;18.700;2024-03-23T02:57:53;4.60;99.90
25512;DHT22;13414;44.534;18.700;2024-03-23T03:00:19;4.60;1.00
25512;DHT22;13414;44.534;18.700;2024-03-23T03:02:47;4.50;1.00
25512;DHT22;13414;44.534;18.700;2024-03-23T03:05:13;4.60;1.00
25512;DHT22;13414;44.534;18.700;2024-03-23T03:07:41;4.50;99.90
25512;DHT22;13414;44.534;18.700;2024-03-23T03:10:07;4.50;99.90
25512;DHT22;13414;44.534;18.700;2024-03-23T03:12:37;4.50;1.00
25512;DHT22;13414;44.534;18.700;2024-03-23T03:15:06;4.40;1.00
25512;DHT22;13414;44.534;18.700;2024-03-23T03:17:34;4.50;1.00
25512;DHT22;13414;44.534;18.700;2024-03-23T03:20:00;4.50;99.90
25512;DHT22;13414;44.534;18.700;2024-03-23T03:22:30;4.40;1.00
25512;DHT22;13414;44.534;18.700;2024-03-23T03:24:57;4.30;1.00
25512;DHT22;13414;44.534;18.700;2024-03-23T03:27:26;4.30;1.00
25512;DHT22;13414;44.534;18.700;2024-03-23T03:29:52;4.30;99.90
25512;DHT22;13414;44.534;18.700;2024-03-23T03:32:21;4.30;1.00
25512;DHT22;13414;44.534;18.700;2024-03-23T03:34:47;4.30;16.60
25512;DHT22;13414;44.534;18.700;2024-03-23T03:37:16;4.20;99.90
25512;DHT22;13414;44.534;18.700;2024-03-23T03:39:42;4.20;1.00
25512;DHT22;13414;44.534;18.700;2024-03-23T03:42:09;4.20;1.00
25512;DHT22;13414;44.534;18.700;2024-03-23T03:44:36;4.10;99.90
25512;DHT22;13414;44.534;18.700;2024-03-23T03:47:04;4.10;1.00
25512;DHT22;13414;44.534;18.700;2024-03-23T03:49:32;4.10;13.20
25512;DHT22;13414;44.534;18.700;2024-03-23T03:52:00;4.10;54.40
25512;DHT22;13414;44.534;18.700;2024-03-23T03:54:28;4.10;1.00
25512;DHT22;13414;44.534;18.700;2024-03-23T03:56:55;4.10;1.00
25512;DHT22;13414;44.534;18.700;2024-03-23T03:59:21;4.10;1.00
25512;DHT22;13414;44.534;18.700;2024-03-23T04:01:49;4.10;1.00
25512;DHT22;13414;44.534;18.700;2024-03-23T04:04:15;4.10;1.00
25512;DHT22;13414;44.534;18.700;2024-03-23T04:06:45;4.20;99.90
25512;DHT22;13414;44.534;18.700;2024-03-23T04:09:11;4.00;99.90
25512;DHT22;13414;44.534;18.700;2024-03-23T04:11:39;3.90;1.00
25512;DHT22;13414;44.534;18.700;2024-03-23T04:14:05;3.90;1.00
25512;DHT22;13414;44.534;18.700;2024-03-23T04:16:34;3.90;99.90
25512;DHT22;13414;44.534;18.700;2024-03-23T04:19:01;3.90;1.00
25512;DHT22;13414;44.534;18.700;2024-03-23T04:21:30;3.90;1.00
25512;DHT22;13414;44.534;18.700;2024-03-23T04:23:57;3.90;1.00
25512;DHT22;13414;44.534;18.700;2024-03-23T04:26:25;4.00;1.00
25512;DHT22;13414;44.534;18.700;2024-03-23T04:28:51;4.00;1.00
25512;DHT22;13414;44.534;18.700;2024-03-23T04:31:19;3.90;1.00
25512;DHT22;13414;44.534;18.700;2024-03-23T04:33:45;3.90;1.00
25512;DHT22;13414;44.534;18.700;2024-03-23T04:36:13;4.00;1.00
25512;DHT22;13414;44.534;18.700;2024-03-23T04:38:39;4.00;99.90
25512;DHT22;13414;44.534;18.700;2024-03-23T04:41:09;3.80;99.90
25512;DHT22;13414;44.534;18.700;2024-03-23T04:43:38;3.80;99.90
25512;DHT22;13414;44.534;18.700;2024-03-23T04:46:06;3.80;1.00
25512;DHT22;13414;44.534;18.700;2024-03-23T04:48:33;3.80;1.00
25512;DHT22;13414;44.534;18.700;2024-03-23T04:51:01;3.80;1.00
25512;DHT22;13414;44.534;18.700;2024-03-23T04:53:28;3.90;1.00
25512;DHT22;13414;44.534;18.700;2024-03-23T04:55:56;3.90;1.00
25512;DHT22;13414;44.534;18.700;2024-03-23T04:58:26;4.00;1.00
25512;DHT22;13414;44.534;18.700;2024-03-23T05:00:56;4.00;1.00
25512;DHT22;13414;44.534;18.700;2024-03-23T05:03:24;4.20;1.00
25512;DHT22;13414;44.534;18.700;2024-03-23T05:05:50;4.20;1.00
25512;DHT22;13414;44.534;18.700;2024-03-23T05:08:17;4.20;99.90
25512;DHT22;13414;44.534;18.700;2024-03-23T05:10:44;4.10;1.00
25512;DHT22;13414;44.534;18.700;2024-03-23T05:13:11;4.10;99.90
25512;DHT22;13414;44.534;18.700;2024-03-23T05:15:39;4.10;1.00
25512;DHT22;13414;44.534;18.700;2024-03-23T05:18:07;4.10;99.90
25512;DHT22;13414;44.534;18.700;2024-03-23T05:20:33;4.00;1.00
25512;DHT22;13414;44.534;18.700;2024-03-23T05:23:01;4.00;94.10
25512;DHT22;13414;44.534;18.700;2024-03-23T05:25:27;4.00;99.90
25512;DHT22;13414;44.534;18.700;2024-03-23T05:27:54;4.10;99.90
25512;DHT22;13414;44.534;18.700;2024-03-23T05:30:21;4.10;61.00
25512;DHT22;13414;44.534;18.700;2024-03-23T05:32:51;4.30;1.00
25512;DHT22;13414;44.534;18.700;2024-03-23T05:35:17;4.40;1.00
25512;DHT22;13414;44.534;18.700;2024-03-23T05:37:44;4.50;1.00
25512;DHT22;13414;44.534;18.700;2024-03-23T05:40:12;4.60;99.90
25512;DHT22;13414;44.534;18.700;2024-03-23T05:42:41;4.80;99.90
25512;DHT22;13414;44.534;18.700;2024-03-23T05:45:08;5.10;1.00
25512;DHT22;13414;44.534;18.700;2024-03-23T05:47:37;5.10;99.90
25512;DHT22;13414;44.534;18.700;2024-03-23T05:50:05;5.20;1.00
25512;DHT22;13414;44.534;18.700;2024-03-23T05:52:35;5.30;1.00
25512;DHT22;13414;44.534;18.700;2024-03-23T05:55:01;5.30;1.00
25512;DHT22;13414;44.534;18.700;2024-03-23T05:57:29;5.50;1.00
25512;DHT22;13414;44.534;18.700;2024-03-23T05:59:55;5.70;99.90
25512;DHT22;13414;44.534;18.700;2024-03-23T06:02:23;5.80;1.00
25512;DHT22;13414;44.534;18.700;2024-03-23T06:04:50;6.00;1.00
25512;DHT22;13414;44.534;18.700;2024-03-23T06:07:18;6.20;1.00
25512;DHT22;13414;44.534;18.700;2024-03-23T06:09:45;6.20;1.00
25512;DHT22;13414;44.534;18.700;2024-03-23T06:12:13;6.20;1.00
25512;DHT22;13414;44.534;18.700;2024-03-23T06:14:39;6.50;1.00
25512;DHT22;13414;44.534;18.700;2024-03-23T06:17:07;6.60;1.00
25512;DHT22;13414;44.534;18.700;2024-03-23T06:19:34;6.80;99.90
25512;DHT22;13414;44.534;18.700;2024-03-23T06:22:01;7.00;99.90
25512;DHT22;13414;44.534;18.700;2024-03-23T06:24:29;7.40;99.90
25512;DHT22;13414;44.534;18.700;2024-03-23T06:26:56;7.80;1.00
25512;DHT22;13414;44.534;18.700;2024-03-23T06:29:23;8.10;1.00
25512;DHT22;13414;44.534;18.700;2024-03-23T06:31:53;8.40;1.00
25512;DHT22;13414;44.534;18.700;2024-03-23T06:34:20;8.40;99.90
25512;DHT22;13414;44.534;18.700;2024-03-23T06:36:48;8.70;99.90
25512;DHT22;13414;44.534;18.700;2024-03-23T06:39:15;9.10;99.90
25512;DHT22;13414;44.534;18.700;2024-03-23T06:41:51;9.10;99.00
25512;DHT22;13414;44.534;18.700;2024-03-23T06:44:18;9.20;77.20
25512;DHT22;13414;44.534;18.700;2024-03-23T06:46:46;9.40;18.80
25512;DHT22;13414;44.534;18.700;2024-03-23T06:49:12;9.60;1.00
25512;DHT22;13414;44.534;18.700;2024-03-23T06:51:40;9.80;1.00
25512;DHT22;13414;44.534;18.700;2024-03-23T06:54:06;10.00;1.00
25512;DHT22;13414;44.534;18.700;2024-03-23T06:56:34;10.00;1.00
25512;DHT22;13414;44.534;18.700;2024-03-23T06:59:02;10.40;1.00
25512;DHT22;13414;44.534;18.700;2024-03-23T07:01:29;10.40;1.00
25512;DHT22;13414;44.534;18.700;2024-03-23T07:03:56;10.60;1.00
25512;DHT22;13414;44.534;18.700;2024-03-23T07:06:23;10.80;1.00
25512;DHT22;13414;44.534;18.700;2024-03-23T07:08:49;11.00;1.00
25512;DHT22;13414;44.534;18.700;2024-03-23T07:11:19;11.20;1.00
25512;DHT22;13414;44.534;18.700;2024-03-23T07:13:46;11.40;1.00
25512;DHT22;13414;44.534;18.700;2024-03-23T07:16:15;11.50;1.00
25512;DHT22;13414;44.534;18.700;2024-03-23T07:18:42;11.90;1.00
25512;DHT22;13414;44.534;18.700;2024-03-23T07:21:09;12.30;1.00
25512;DHT22;13414;44.534;18.700;2024-03-23T07:23:36;12.60;1.00
25512;DHT22;13414;44.534;18.700;2024-03-23T07:26:04;12.90;1.00
25512;DHT22;13414;44.534;18.700;2024-03-23T07:28:31;13.20;1.00
25512;DHT22;13414;44.534;18.700;2024-03-23T07:31:03;13.40;1.00
25512;DHT22;13414;44.534;18.700;2024-03-23T07:33:32;13.50;1.00
25512;DHT22;13414;44.534;18.700;2024-03-23T07:35:59;13.60;1.00
25512;DHT22;13414;44.534;18.700;2024-03-23T07:38:27;13.80;1.00
25512;DHT22;13414;44.534;18.700;2024-03-23T07:41:03;14.00;1.00
25512;DHT22;13414;44.534;18.700;2024-03-23T07:43:30;14.00;1.00
25512;DHT22;13414;44.534;18.700;2024-03-23T07:45:57;14.10;1.00
25512;DHT22;13414;44.534;18.700;2024-03-23T07:48:24;14.30;1.00
25512;DHT22;13414;44.534;18.700;2024-03-23T07:51:03;14.60;1.00
25512;DHT22;13414;44.534;18.700;2024-03-23T07:53:30;14.70;1.00
25512;DHT22;13414;44.534;18.700;2024-03-23T07:55:59;15.00;1.00
25512;DHT22;13414;44.534;18.700;2024-03-23T07:58:26;15.10;1.00
25512;DHT22;13414;44.534;18.700;2024-03-23T08:00:54;15.10;1.00
25512;DHT22;13414;44.534;18.700;2024-03-23T08:03:20;15.30;1.00
25512;DHT22;13414;44.534;18.700;2024-03-23T08:05:48;15.50;1.00
25512;DHT22;13414;44.534;18.700;2024-03-23T08:08:16;15.70;1.00
25512;DHT22;13414;44.534;18.700;2024-03-23T08:10:50;15.90;1.00
25512;DHT22;13414;44.534;18.700;2024-03-23T08:13:17;16.10;1.00
25512;DHT22;13414;44.534;18.700;2024-03-23T08:15:45;16.30;1.00
25512;DHT22;13414;44.534;18.700;2024-03-23T08:18:13;16.50;1.00
25512;DHT22;13414;44.534;18.700;2024-03-23T08:20:41;16.80;1.00
25512;DHT22;13414;44.534;18.700;2024-03-23T08:23:09;17.00;1.00
25512;DHT22;13414;44.534;18.700;2024-03-23T08:25:37;17.20;1.00
25512;DHT22;13414;44.534;18.700;2024-03-23T08:28:05;17.30;1.00
25512;DHT22;13414;44.534;18.700;2024-03-23T08:30:31;17.30;1.00
25512;DHT22;13414;44.534;18.700;2024-03-23T08:32:59;17.40;1.00
25512;DHT22;13414;44.534;18.700;2024-03-23T08:35:25;17.50;1.00
25512;DHT22;13414;44.534;18.700;2024-03-23T08:37:53;17.50;1.00
25512;DHT22;13414;44.534;18.700;2024-03-23T08:40:19;17.60;1.00
25512;DHT22;13414;44.534;18.700;2024-03-23T08:42:48;17.90;1.00
25512;DHT22;13414;44.534;18.700;2024-03-23T08:45:14;17.90;1.00
25512;DHT22;13414;44.534;18.700;2024-03-23T08:47:42;18.10;1.00
25512;DHT22;13414;44.534;18.700;2024-03-23T08:50:09;18.20;1.00
25512;DHT22;13414;44.534;18.700;2024-03-23T08:52:36;18.40;1.00
25512;DHT22;13414;44.534;18.700;2024-03-23T08:55:03;18.50;1.00
25512;DHT22;13414;44.534;18.700;2024-03-23T08:57:31;18.60;1.00
25512;DHT22;13414;44.534;18.700;2024-03-23T09:00:00;18.70;1.00
25512;DHT22;13414;44.534;18.700;2024-03-23T09:02:27;18.60;1.00
25512;DHT22;13414;44.534;18.700;2024-03-23T09:04:53;18.50;1.00
25512;DHT22;13414;44.534;18.700;2024-03-23T09:07:21;18.70;1.00
25512;DHT22;13414;44.534;18.700;2024-03-23T09:09:47;18.70;1.00
25512;DHT22;13414;44.534;18.700;2024-03-23T09:12:15;18.80;1.00
25512;DHT22;13414;44.534;18.700;2024-03-23T09:14:42;19.00;1.00
25512;DHT22;13414;44.534;18.700;2024-03-23T09:17:10;19.00;1.00
25512;DHT22;13414;44.534;18.700;2024-03-23T09:19:39;19.10;1.00
25512;DHT22;13414;44.534;18.700;2024-03-23T09:22:06;19.20;1.00
25512;DHT22;13414;44.534;18.700;2024-03-23T09:24:33;19.20;1.00
25512;DHT22;13414;44.534;18.700;2024-03-23T09:26:59;19.30;1.00
25512;DHT22;13414;44.534;18.700;2024-03-23T09:29:27;19.40;1.00
25512;DHT22;13414;44.534;18.700;2024-03-23T09:31:54;19.50;1.00
25512;DHT22;13414;44.534;18.700;2024-03-23T09:34:23;19.60;1.00
25512;DHT22;13414;44.534;18.700;2024-03-23T09:36:51;19.60;1.00
25512;DHT22;13414;44.534;18.700;2024-03-23T09:39:19;19.70;1.00
25512;DHT22;13414;44.534;18.700;2024-03-23T09:41:47;19.70;1.00
25512;DHT22;13414;44.534;18.700;2024-03-23T09:44:14;19.70;1.00
25512;DHT22;13414;44.534;18.700;2024-03-23T09:46:41;19.70;1.00
25512;DHT22;13414;44.534;18.700;2024-03-23T09:49:08;19.70;1.00
25512;DHT22;13414;44.534;18.700;2024-03-23T09:51:37;19.80;1.00
25512;DHT22;13414;44.534;18.700;2024-03-23T09:54:05;19.80;1.00
25512;DHT22;13414;44.534;18.700;2024-03-23T09:56:31;19.90;1.00
25512;DHT22;13414;44.534;18.700;2024-03-23T09:59:02;19.90;1.00
25512;DHT22;13414;44.534;18.700;2024-03-23T10:01:30;20.10;1.00
25512;DHT22;13414;44.534;18.700;2024-03-23T10:03:57;20.10;99.90
25512;DHT22;13414;44.534;18.700;2024-03-23T10:06:24;20.00;1.00
25512;DHT22;13414;44.534;18.700;2024-03-23T10:08:53;20.10;1.00
25512;DHT22;13414;44.534;18.700;2024-03-23T10:11:21;20.10;1.00
25512;DHT22;13414;44.534;18.700;2024-03-23T10:13:48;20.20;99.90
25512;DHT22;13414;44.534;18.700;2024-03-23T10:16:22;20.30;99.90
25512;DHT22;13414;44.534;18.700;2024-03-23T10:18:50;20.20;1.00
25512;DHT22;13414;44.534;18.700;2024-03-23T10:21:16;20.20;99.90
25512;DHT22;13414;44.534;18.700;2024-03-23T10:23:44;20.30;99.90
25512;DHT22;13414;44.534;18.700;2024-03-23T10:26:17;20.40;99.90
25512;DHT22;13414;44.534;18.700;2024-03-23T10:28:56;20.40;1.00
25512;DHT22;13414;44.534;18.700;2024-03-23T10:31:25;20.50;99.90
25512;DHT22;13414;44.534;18.700;2024-03-23T10:33:53;20.50;99.90
25512;DHT22;13414;44.534;18.700;2024-03-23T10:36:21;20.50;99.90
25512;DHT22;13414;44.534;18.700;2024-03-23T10:38:50;20.60;99.90
25512;DHT22;13414;44.534;18.700;2024-03-23T10:41:19;20.60;99.90
25512;DHT22;13414;44.534;18.700;2024-03-23T10:43:47;20.60;99.90
25512;DHT22;13414;44.534;18.700;2024-03-23T10:46:15;20.60;99.90
25512;DHT22;13414;44.534;18.700;2024-03-23T10:48:43;20.60;99.90
25512;DHT22;13414;44.534;18.700;2024-03-23T10:51:10;20.40;99.90
25512;DHT22;13414;44.534;18.700;2024-03-23T10:53:38;20.50;99.90
25512;DHT22;13414;44.534;18.700;2024-03-23T10:56:06;20.70;99.90
25512;DHT22;13414;44.534;18.700;2024-03-23T10:58:38;20.70;99.90
25512;DHT22;13414;44.534;18.700;2024-03-23T11:01:10;20.80;99.90
25512;DHT22;13414;44.534;18.700;2024-03-23T11:03:39;20.90;99.90
25512;DHT22;13414;44.534;18.700;2024-03-23T11:06:07;21.00;99.90
25512;DHT22;13414;44.534;18.700;2024-03-23T11:08:36;21.10;99.90
25512;DHT22;13414;44.534;18.700;2024-03-23T11:11:15;20.80;99.90
25512;DHT22;13414;44.534;18.700;2024-03-23T11:13:48;20.70;99.90
25512;DHT22;13414;44.534;18.700;2024-03-23T11:16:16;20.80;99.90
25512;DHT22;13414;44.534;18.700;2024-03-23T11:18:44;20.80;99.90
25512;DHT22;13414;44.534;18.700;2024-03-23T11:21:11;20.70;99.90
25512;DHT22;13414;44.534;18.700;2024-03-23T11:24:13;20.70;99.90
25512;DHT22;13414;44.534;18.700;2024-03-23T11:26:40;20.70;99.90
25512;DHT22;13414;44.534;18.700;2024-03-23T11:29:12;20.80;99.90
25512;DHT22;13414;44.534;18.700;2024-03-23T11:31:46;20.90;99.90
25512;DHT22;13414;44.534;18.700;2024-03-23T11:34:12;21.00;99.90
25512;DHT22;13414;44.534;18.700;2024-03-23T11:36:40;20.90;99.90
25512;DHT22;13414;44.534;18.700;2024-03-23T11:39:16;20.90;99.90
25512;DHT22;13414;44.534;18.700;2024-03-23T11:41:47;21.00;99.90
25512;DHT22;13414;44.534;18.700;2024-03-23T11:44:19;21.20;99.90
25512;DHT22;13414;44.534;18.700;2024-03-23T11:46:48;21.30;99.90
25512;DHT22;13414;44.534;18.700;2024-03-23T11:49:21;21.40;99.90
25512;DHT22;13414;44.534;18.700;2024-03-23T11:51:49;21.50;99.90
25512;DHT22;13414;44.534;18.700;2024-03-23T11:54:16;21.50;99.90
25512;DHT22;13414;44.534;18.700;2024-03-23T11:56:55;21.50;99.90
25512;DHT22;13414;44.534;18.700;2024-03-23T11:59:33;21.50;99.90
25512;DHT22;13414;44.534;18.700;2024-03-23T12:02:06;21.60;99.90
25512;DHT22;13414;44.534;18.700;2024-03-23T12:04:33;21.50;99.90
25512;DHT22;13414;44.534;18.700;2024-03-23T12:07:12;21.50;99.90
25512;DHT22;13414;44.534;18.700;2024-03-23T12:09:39;21.50;99.90
25512;DHT22;13414;44.534;18.700;2024-03-23T12:12:08;21.50;99.90
25512;DHT22;13414;44.534;18.700;2024-03-23T12:14:36;21.60;99.90
25512;DHT22;13414;44.534;18.700;2024-03-23T12:17:11;21.70;99.90
25512;DHT22;13414;44.534;18.700;2024-03-23T12:19:38;21.80;99.90
25512;DHT22;13414;44.534;18.700;2024-03-23T12:22:05;21.90;99.90
25512;DHT22;13414;44.534;18.700;2024-03-23T12:24:33;22.00;99.90
25512;DHT22;13414;44.534;18.700;2024-03-23T12:27:02;22.00;99.90
25512;DHT22;13414;44.534;18.700;2024-03-23T12:29:31;22.00;99.90
25512;DHT22;13414;44.534;18.700;2024-03-23T12:32:01;22.10;99.90
25512;DHT22;13414;44.534;18.700;2024-03-23T12:34:28;22.00;99.90
25512;DHT22;13414;44.534;18.700;2024-03-23T12:36:56;22.10;99.90
25512;DHT22;13414;44.534;18.700;2024-03-23T12:39:22;22.10;99.90
25512;DHT22;13414;44.534;18.700;2024-03-23T12:41:50;22.10;99.90
25512;DHT22;13414;44.534;18.700;2024-03-23T12:44:18;22.10;99.90
25512;DHT22;13414;44.534;18.700;2024-03-23T12:46:47;22.10;99.90
25512;DHT22;13414;44.534;18.700;2024-03-23T12:49:14;22.10;99.90
25512;DHT22;13414;44.534;18.700;2024-03-23T12:51:52;22.10;99.90
25512;DHT22;13414;44.534;18.700;2024-03-23T12:54:20;22.20;99.90
25512;DHT22;13414;44.534;18.700;2024-03-23T12:56:48;22.20;99.90
25512;DHT22;13414;44.534;18.700;2024-03-23T12:59:15;22.10;99.90
25512;DHT22;13414;44.534;18.700;2024-03-23T13:01:42;22.20;99.90
25512;DHT22;13414;44.534;18.700;2024-03-23T13:04:09;22.20;99.90
25512;DHT22;13414;44.534;18.700;2024-03-23T13:06:38;22.10;99.90
25512;DHT22;13414;44.534;18.700;2024-03-23T13:09:05;22.20;99.90
25512;DHT22;13414;44.534;18.700;2024-03-23T13:11:32;22.20;99.90
25512;DHT22;13414;44.534;18.700;2024-03-23T13:13:58;22.20;99.90
25512;DHT22;13414;44.534;18.700;2024-03-23T13:16:26;22.20;99.90
25512;DHT22;13414;44.534;18.700;2024-03-23T13:18:52;22.20;99.90
25512;DHT22;13414;44.534;18.700;2024-03-23T13:21:20;22.20;99.90
25512;DHT22;13414;44.534;18.700;2024-03-23T13:23:49;22.20;99.90
25512;DHT22;13414;44.534;18.700;2024-03-23T13:26:17;22.30;99.90
25512;DHT22;13414;44.534;18.700;2024-03-23T13:28:43;22.40;99.90
25512;DHT22;13414;44.534;18.700;2024-03-23T13:31:11;22.40;99.90
25512;DHT22;13414;44.534;18.700;2024-03-23T13:33:38;22.30;99.90
25512;DHT22;13414;44.534;18.700;2024-03-23T13:36:06;22.30;99.90
25512;DHT22;13414;44.534;18.700;2024-03-23T13:38:33;22.30;99.90
25512;DHT22;13414;44.534;18.700;2024-03-23T13:41:02;22.30;99.90
25512;DHT22;13414;44.534;18.700;2024-03-23T13:43:30;22.30;99.90
25512;DHT22;13414;44.534;18.700;2024-03-23T13:45:58;22.30;99.90
25512;DHT22;13414;44.534;18.700;2024-03-23T13:48:26;22.40;99.90
25512;DHT22;13414;44.534;18.700;2024-03-23T13:50:58;22.60;99.90
25512;DHT22;13414;44.534;18.700;2024-03-23T13:53:24;22.60;99.90
25512;DHT22;13414;44.534;18.700;2024-03-23T13:55:52;22.70;99.90
25512;DHT22;13414;44.534;18.700;2024-03-23T13:58:20;22.80;99.90
25512;DHT22;13414;44.534;18.700;2024-03-23T14:00:48;22.80;99.90
25512;DHT22;13414;44.534;18.700;2024-03-23T14:03:14;22.90;99.90
25512;DHT22;13414;44.534;18.700;2024-03-23T14:05:42;22.80;99.90
25512;DHT22;13414;44.534;18.700;2024-03-23T14:08:09;22.80;99.90
25512;DHT22;13414;44.534;18.700;2024-03-23T14:10:40;22.80;99.90
25512;DHT22;13414;44.534;18.700;2024-03-23T14:13:07;22.90;99.90
25512;DHT22;13414;44.534;18.700;2024-03-23T14:15:36;22.80;99.90
25512;DHT22;13414;44.534;18.700;2024-03-23T14:18:03;22.90;99.90
25512;DHT22;13414;44.534;18.700;2024-03-23T14:20:30;22.80;99.90
25512;DHT22;13414;44.534;18.700;2024-03-23T14:22:57;22.80;99.90
25512;DHT22;13414;44.534;18.700;2024-03-23T14:25:24;22.80;99.90
25512;DHT22;13414;44.534;18.700;2024-03-23T14:27:57;22.70;99.90
25512;DHT22;13414;44.534;18.700;2024-03-23T14:30:24;22.60;99.90
25512;DHT22;13414;44.534;18.700;2024-03-23T14:32:52;22.60;99.90
25512;DHT22;13414;44.534;18.700;2024-03-23T14:35:20;22.60;99.90
25512;DHT22;13414;44.534;18.700;2024-03-23T14:37:46;22.40;99.90
25512;DHT22;13414;44.534;18.700;2024-03-23T14:40:14;22.40;99.90
25512;DHT22;13414;44.534;18.700;2024-03-23T14:42:40;22.50;99.90
25512;DHT22;13414;44.534;18.700;2024-03-23T14:45:09;22.50;99.90
25512;DHT22;13414;44.534;18.700;2024-03-23T14:47:35;22.60;99.90
25512;DHT22;13414;44.534;18.700;2024-03-23T14:50:05;22.60;99.90
25512;DHT22;13414;44.534;18.700;2024-03-23T14:52:34;22.70;99.90
25512;DHT22;13414;44.534;18.700;2024-03-23T14:55:01;22.80;99.90
25512;DHT22;13414;44.534;18.700;2024-03-23T14:57:28;22.80;99.90
25512;DHT22;13414;44.534;18.700;2024-03-23T14:59:56;22.80;99.90
25512;DHT22;13414;44.534;18.700;2024-03-23T15:02:22;22.70;99.90
25512;DHT22;13414;44.534;18.700;2024-03-23T15:04:50;22.70;99.90
25512;DHT22;13414;44.534;18.700;2024-03-23T15:07:18;22.70;99.90
25512;DHT22;13414;44.534;18.700;2024-03-23T15:09:45;22.60;99.90
25512;DHT22;13414;44.534;18.700;2024-03-23T15:12:11;22.50;99.90
25512;DHT22;13414;44.534;18.700;2024-03-23T15:14:39;22.30;99.90
25512;DHT22;13414;44.534;18.700;2024-03-23T15:17:05;22.30;99.90
25512;DHT22;13414;44.534;18.700;2024-03-23T15:19:35;22.20;99.90
25512;DHT22;13414;44.534;18.700;2024-03-23T15:22:01;22.20;99.90
25512;DHT22;13414;44.534;18.700;2024-03-23T15:24:31;22.20;99.90
25512;DHT22;13414;44.534;18.700;2024-03-23T15:26:57;22.10;99.90
25512;DHT22;13414;44.534;18.700;2024-03-23T15:29:25;22.00;99.90
25512;DHT22;13414;44.534;18.700;2024-03-23T15:31:51;21.90;99.90
25512;DHT22;13414;44.534;18.700;2024-03-23T15:34:19;21.80;99.90
25512;DHT22;13414;44.534;18.700;2024-03-23T15:36:47;21.70;99.90
25512;DHT22;13414;44.534;18.700;2024-03-23T15:39:16;21.70;99.90
25512;DHT22;13414;44.534;18.700;2024-03-23T15:41:46;21.70;99.90
25512;DHT22;13414;44.534;18.700;2024-03-23T15:44:13;21.60;99.90
25512;DHT22;13414;44.534;18.700;2024-03-23T15:46:40;21.60;99.90
25512;DHT22;13414;44.534;18.700;2024-03-23T15:49:07;21.50;99.90
25512;DHT22;13414;44.534;18.700;2024-03-23T15:51:34;21.50;99.90
25512;DHT22;13414;44.534;18.700;2024-03-23T15:54:03;21.40;99.90
25512;DHT22;13414;44.534;18.700;2024-03-23T15:56:29;21.40;99.90
25512;DHT22;13414;44.534;18.700;2024-03-23T15:58:58;21.20;99.90
25512;DHT22;13414;44.534;18.700;2024-03-23T16:01:31;21.10;99.90
25512;DHT22;13414;44.534;18.700;2024-03-23T16:03:59;21.00;99.90
25512;DHT22;13414;44.534;18.700;2024-03-23T16:06:26;21.00;99.90
25512;DHT22;13414;44.534;18.700;2024-03-23T16:08:56;20.90;99.90
25512;DHT22;13414;44.534;18.700;2024-03-23T16:11:26;20.80;99.90
25512;DHT22;13414;44.534;18.700;2024-03-23T16:13:53;20.80;99.90
25512;DHT22;13414;44.534;18.700;2024-03-23T16:16:21;20.80;99.90
25512;DHT22;13414;44.534;18.700;2024-03-23T16:18:51;20.80;99.90
25512;DHT22;13414;44.534;18.700;2024-03-23T16:21:18;20.70;99.90
25512;DHT22;13414;44.534;18.700;2024-03-23T16:23:45;20.70;99.90
25512;DHT22;13414;44.534;18.700;2024-03-23T16:26:12;20.60;99.90